sensor_id;sensor_type;location;lat;lon;timestamp;temperature;humidity
12434;DHT22;6281;49.038;8.372;2024-02-26T00:02:17;9.00;99.90
12434;DHT22;6281;49.038;8.372;2024-02-26T00:04:44;9.00;99.90
12434;DHT22;6281;49.038;8.372;2024-02-26T00:07:11;9.10;99.90
12434;DHT22;6281;49.038;8.372;2024-02-26T00:09:39;9.00;99.90
12434;DHT22;6281;49.038;8.372;2024-02-26T00:12:06;9.10;99.90
12434;DHT22;6281;49.038;8.372;2024-02-26T00:14:33;9.20;99.90
12434;DHT22;6281;49.038;8.372;2024-02-26T00:17:02;9.20;99.90
12434;DHT22;6281;49.038;8.372;2024-02-26T00:19:29;9.20;99.90
12434;DHT22;6281;49.038;8.372;2024-02-26T00:21:56;9.20;99.90
12434;DHT22;6281;49.038;8.372;2024-02-26T00:24:23;9.20;99.90
12434;DHT22;6281;49.038;8.372;2024-02-26T00:26:50;9.30;99.90
12434;DHT22;6281;49.038;8.372;2024-02-26T00:29:20;9.40;99.90
12434;DHT22;6281;49.038;8.372;2024-02-26T00:31:47;9.40;99.90
12434;DHT22;6281;49.038;8.372;2024-02-26T00:34:15;9.30;99.90
12434;DHT22;6281;49.038;8.372;2024-02-26T00:36:42;9.30;99.90
12434;DHT22;6281;49.038;8.372;2024-02-26T00:39:09;9.30;99.90
12434;DHT22;6281;49.038;8.372;2024-02-26T00:41:38;9.20;99.90
12434;DHT22;6281;49.038;8.372;2024-02-26T00:44:06;9.30;99.90
12434;DHT22;6281;49.038;8.372;2024-02-26T00:46:32;9.30;99.90
12434;DHT22;6281;49.038;8.372;2024-02-26T00:48:59;9.30;99.90
12434;DHT22;6281;49.038;8.372;2024-02-26T00:51:28;9.10;99.90
12434;DHT22;6281;49.038;8.372;2024-02-26T00:53:55;9.20;99.90
12434;DHT22;6281;49.038;8.372;2024-02-26T00:56:22;9.30;99.90
12434;DHT22;6281;49.038;8.372;2024-02-26T00:58:49;9.30;99.90
12434;DHT22;6281;49.038;8.372;2024-02-26T01:01:16;9.20;99.90
12434;DHT22;6281;49.038;8.372;2024-02-26T01:03:43;9.10;99.90
12434;DHT22;6281;49.038;8.372;2024-02-26T01:06:10;9.10;99.90
12434;DHT22;6281;49.038;8.372;2024-02-26T01:08:38;9.30;99.90
12434;DHT22;6281;49.038;8.372;2024-02-26T01:11:05;9.30;99.90
12434;DHT22;6281;49.038;8.372;2024-02-26T01:13:33;9.20;99.90
12434;DHT22;6281;49.038;8.372;2024-02-26T01:16:00;9.10;99.90
12434;DHT22;6281;49.038;8.372;2024-02-26T01:18:27;9.10;99.90
12434;DHT22;6281;49.038;8.372;2024-02-26T01:20:54;9.10;99.90
12434;DHT22;6281;49.038;8.372;2024-02-26T01:23:23;9.00;99.90
12434;DHT22;6281;49.038;8.372;2024-02-26T01:25:51;8.90;99.90
12434;DHT22;6281;49.038;8.372;2024-02-26T01:28:18;8.80;99.90
12434;DHT22;6281;49.038;8.372;2024-02-26T01:30:45;9.00;99.90
12434;DHT22;6281;49.038;8.372;2024-02-26T01:33:12;9.00;99.90
12434;DHT22;6281;49.038;8.372;2024-02-26T01:35:39;9.00;99.90
12434;DHT22;6281;49.038;8.372;2024-02-26T01:38:06;9.10;99.90
12434;DHT22;6281;49.038;8.372;2024-02-26T01:40:33;9.10;99.90
12434;DHT22;6281;49.038;8.372;2024-02-26T01:43:02;8.90;99.90
12434;DHT22;6281;49.038;8.372;2024-02-26T01:45:28;8.90;99.90
12434;DHT22;6281;49.038;8.372;2024-02-26T01:47:55;8.80;99.90
12434;DHT22;6281;49.038;8.372;2024-02-26T01:50:24;8.90;99.90
12434;DHT22;6281;49.038;8.372;2024-02-26T01:52:51;8.70;99.90
12434;DHT22;6281;49.038;8.372;2024-02-26T01:55:19;8.50;99.90
12434;DHT22;6281;49.038;8.372;2024-02-26T01:57:49;8.20;99.90
12434;DHT22;6281;49.038;8.372;2024-02-26T02:00:19;8.30;99.90
12434;DHT22;6281;49.038;8.372;2024-02-26T02:02:46;8.20;99.90
12434;DHT22;6281;49.038;8.372;2024-02-26T02:05:14;8.40;99.90
12434;DHT22;6281;49.038;8.372;2024-02-26T02:07:42;8.40;99.90
12434;DHT22;6281;49.038;8.372;2024-02-26T02:10:09;8.50;99.90
12434;DHT22;6281;49.038;8.372;2024-02-26T02:12:36;8.50;99.90
12434;DHT22;6281;49.038;8.372;2024-02-26T02:15:06;8.40;99.90
12434;DHT22;6281;49.038;8.372;2024-02-26T02:17:35;8.60;99.90
12434;DHT22;6281;49.038;8.372;2024-02-26T02:20:02;8.40;99.90
12434;DHT22;6281;49.038;8.372;2024-02-26T02:22:31;8.60;99.90
12434;DHT22;6281;49.038;8.372;2024-02-26T02:24:59;8.70;99.90
12434;DHT22;6281;49.038;8.372;2024-02-26T02:27:26;8.70;99.90
12434;DHT22;6281;49.038;8.372;2024-02-26T02:29:54;8.80;99.90
12434;DHT22;6281;49.038;8.372;2024-02-26T02:32:21;8.90;99.90
12434;DHT22;6281;49.038;8.372;2024-02-26T02:34:49;8.80;99.90
12434;DHT22;6281;49.038;8.372;2024-02-26T02:37:16;8.80;99.90
12434;DHT22;6281;49.038;8.372;2024-02-26T02:39:44;8.80;99.90
12434;DHT22;6281;49.038;8.372;2024-02-26T02:42:11;8.80;99.90
12434;DHT22;6281;49.038;8.372;2024-02-26T02:44:38;8.90;99.90
12434;DHT22;6281;49.038;8.372;2024-02-26T02:47:05;8.60;99.90
12434;DHT22;6281;49.038;8.372;2024-02-26T02:49:32;8.50;99.90
12434;DHT22;6281;49.038;8.372;2024-02-26T02:51:59;8.50;99.90
12434;DHT22;6281;49.038;8.372;2024-02-26T02:54:26;8.40;99.90
12434;DHT22;6281;49.038;8.372;2024-02-26T02:56:54;8.40;99.90
12434;DHT22;6281;49.038;8.372;2024-02-26T02:59:21;8.40;99.90
12434;DHT22;6281;49.038;8.372;2024-02-26T03:01:48;8.40;99.90
12434;DHT22;6281;49.038;8.372;2024-02-26T03:04:15;8.50;99.90
12434;DHT22;6281;49.038;8.372;2024-02-26T03:06:41;8.30;99.90
12434;DHT22;6281;49.038;8.372;2024-02-26T03:09:08;8.30;99.90
12434;DHT22;6281;49.038;8.372;2024-02-26T03:11:35;8.40;99.90
12434;DHT22;6281;49.038;8.372;2024-02-26T03:14:03;8.20;99.90
12434;DHT22;6281;49.038;8.372;2024-02-26T03:16:30;8.10;99.90
12434;DHT22;6281;49.038;8.372;2024-02-26T03:18:57;8.00;99.90
12434;DHT22;6281;49.038;8.372;2024-02-26T03:21:24;7.80;99.90
12434;DHT22;6281;49.038;8.372;2024-02-26T03:23:51;7.90;99.90
12434;DHT22;6281;49.038;8.372;2024-02-26T03:26:18;8.10;99.90
12434;DHT22;6281;49.038;8.372;2024-02-26T03:28:47;7.90;99.90
12434;DHT22;6281;49.038;8.372;2024-02-26T03:31:15;7.80;99.90
12434;DHT22;6281;49.038;8.372;2024-02-26T03:33:42;7.80;99.90
12434;DHT22;6281;49.038;8.372;2024-02-26T03:36:09;7.70;99.90
12434;DHT22;6281;49.038;8.372;2024-02-26T03:38:37;7.70;99.90
12434;DHT22;6281;49.038;8.372;2024-02-26T03:41:04;7.60;99.90
12434;DHT22;6281;49.038;8.372;2024-02-26T03:43:31;7.70;99.90
12434;DHT22;6281;49.038;8.372;2024-02-26T03:45:58;7.70;99.90
12434;DHT22;6281;49.038;8.372;2024-02-26T03:48:26;7.60;99.90
12434;DHT22;6281;49.038;8.372;2024-02-26T03:51:01;7.70;99.90
12434;DHT22;6281;49.038;8.372;2024-02-26T03:53:28;7.60;99.90
12434;DHT22;6281;49.038;8.372;2024-02-26T03:55:55;7.70;99.90
12434;DHT22;6281;49.038;8.372;2024-02-26T03:58:21;7.80;99.90
12434;DHT22;6281;49.038;8.372;2024-02-26T04:00:48;7.70;99.90
12434;DHT22;6281;49.038;8.372;2024-02-26T04:09:09;7.70;99.90
12434;DHT22;6281;49.038;8.372;2024-02-26T04:12:08;7.60;99.90
12434;DHT22;6281;49.038;8.372;2024-02-26T04:13:20;7.50;99.90
12434;DHT22;6281;49.038;8.372;2024-02-26T04:15:54;7.60;99.90
12434;DHT22;6281;49.038;8.372;2024-02-26T04:18:21;7.70;99.90
12434;DHT22;6281;49.038;8.372;2024-02-26T04:20:48;7.60;99.90
12434;DHT22;6281;49.038;8.372;2024-02-26T04:23:18;7.50;99.90
12434;DHT22;6281;49.038;8.372;2024-02-26T04:25:45;7.50;99.90
12434;DHT22;6281;49.038;8.372;2024-02-26T04:28:12;7.60;99.90
12434;DHT22;6281;49.038;8.372;2024-02-26T04:30:39;7.50;99.90
12434;DHT22;6281;49.038;8.372;2024-02-26T04:33:06;7.50;99.90
12434;DHT22;6281;49.038;8.372;2024-02-26T04:35:32;7.60;99.90
12434;DHT22;6281;49.038;8.372;2024-02-26T04:38:00;7.70;99.90
12434;DHT22;6281;49.038;8.372;2024-02-26T04:40:28;7.70;99.90
12434;DHT22;6281;49.038;8.372;2024-02-26T04:42:55;7.70;99.90
12434;DHT22;6281;49.038;8.372;2024-02-26T04:45:22;7.80;99.90
12434;DHT22;6281;49.038;8.372;2024-02-26T04:47:49;7.70;99.90
12434;DHT22;6281;49.038;8.372;2024-02-26T04:50:16;7.70;99.90
12434;DHT22;6281;49.038;8.372;2024-02-26T04:52:43;7.80;99.90
12434;DHT22;6281;49.038;8.372;2024-02-26T04:55:10;7.70;99.90
12434;DHT22;6281;49.038;8.372;2024-02-26T04:57:38;7.70;99.90
12434;DHT22;6281;49.038;8.372;2024-02-26T05:00:06;7.70;99.90
12434;DHT22;6281;49.038;8.372;2024-02-26T05:02:33;7.60;99.90
12434;DHT22;6281;49.038;8.372;2024-02-26T05:05:04;7.70;99.90
12434;DHT22;6281;49.038;8.372;2024-02-26T05:07:31;7.70;99.90
12434;DHT22;6281;49.038;8.372;2024-02-26T05:09:57;7.70;99.90
12434;DHT22;6281;49.038;8.372;2024-02-26T05:12:24;7.80;99.90
12434;DHT22;6281;49.038;8.372;2024-02-26T05:14:52;7.80;99.90
12434;DHT22;6281;49.038;8.372;2024-02-26T05:17:19;8.00;99.90
12434;DHT22;6281;49.038;8.372;2024-02-26T05:19:46;8.10;99.90
12434;DHT22;6281;49.038;8.372;2024-02-26T05:22:13;8.00;99.90
12434;DHT22;6281;49.038;8.372;2024-02-26T05:24:39;8.00;99.90
12434;DHT22;6281;49.038;8.372;2024-02-26T05:27:07;8.00;99.90
12434;DHT22;6281;49.038;8.372;2024-02-26T05:29:33;8.00;99.90
12434;DHT22;6281;49.038;8.372;2024-02-26T05:32:01;8.10;99.90
12434;DHT22;6281;49.038;8.372;2024-02-26T05:34:28;8.10;99.90
12434;DHT22;6281;49.038;8.372;2024-02-26T05:36:55;8.20;99.90
12434;DHT22;6281;49.038;8.372;2024-02-26T05:39:22;8.30;99.90
12434;DHT22;6281;49.038;8.372;2024-02-26T05:41:49;8.20;99.90
12434;DHT22;6281;49.038;8.372;2024-02-26T05:44:16;8.30;99.90
12434;DHT22;6281;49.038;8.372;2024-02-26T05:46:43;8.20;99.90
12434;DHT22;6281;49.038;8.372;2024-02-26T05:49:11;8.30;99.90
12434;DHT22;6281;49.038;8.372;2024-02-26T05:51:38;8.30;99.90
12434;DHT22;6281;49.038;8.372;2024-02-26T05:54:05;8.30;99.90
12434;DHT22;6281;49.038;8.372;2024-02-26T05:56:31;8.30;99.90
12434;DHT22;6281;49.038;8.372;2024-02-26T05:58:58;8.30;99.90
12434;DHT22;6281;49.038;8.372;2024-02-26T06:01:25;8.20;99.90
12434;DHT22;6281;49.038;8.372;2024-02-26T06:03:51;8.20;99.90
12434;DHT22;6281;49.038;8.372;2024-02-26T06:06:20;8.20;99.90
12434;DHT22;6281;49.038;8.372;2024-02-26T06:08:48;8.20;99.90
12434;DHT22;6281;49.038;8.372;2024-02-26T06:11:15;8.30;99.90
12434;DHT22;6281;49.038;8.372;2024-02-26T06:13:42;8.30;99.90
12434;DHT22;6281;49.038;8.372;2024-02-26T06:16:09;8.30;99.90
12434;DHT22;6281;49.038;8.372;2024-02-26T06:18:35;8.30;99.90
12434;DHT22;6281;49.038;8.372;2024-02-26T06:21:02;8.30;99.90
12434;DHT22;6281;49.038;8.372;2024-02-26T06:23:31;8.30;99.90
12434;DHT22;6281;49.038;8.372;2024-02-26T06:25:57;8.40;99.90
12434;DHT22;6281;49.038;8.372;2024-02-26T06:28:24;8.40;99.90
12434;DHT22;6281;49.038;8.372;2024-02-26T06:30:51;8.40;99.90
12434;DHT22;6281;49.038;8.372;2024-02-26T06:33:18;8.50;99.90
12434;DHT22;6281;49.038;8.372;2024-02-26T06:35:44;8.50;99.90
12434;DHT22;6281;49.038;8.372;2024-02-26T06:38:11;8.50;99.90
12434;DHT22;6281;49.038;8.372;2024-02-26T06:40:40;8.50;99.90
12434;DHT22;6281;49.038;8.372;2024-02-26T06:43:07;8.50;99.90
12434;DHT22;6281;49.038;8.372;2024-02-26T06:45:34;8.50;99.90
12434;DHT22;6281;49.038;8.372;2024-02-26T06:48:00;8.50;99.90
12434;DHT22;6281;49.038;8.372;2024-02-26T06:50:28;8.50;99.90
12434;DHT22;6281;49.038;8.372;2024-02-26T06:52:54;8.40;99.90
12434;DHT22;6281;49.038;8.372;2024-02-26T06:55:21;8.40;99.90
12434;DHT22;6281;49.038;8.372;2024-02-26T06:57:49;8.40;99.90
12434;DHT22;6281;49.038;8.372;2024-02-26T07:00:17;8.40;99.90
12434;DHT22;6281;49.038;8.372;2024-02-26T07:02:44;8.30;99.90
12434;DHT22;6281;49.038;8.372;2024-02-26T07:05:11;8.40;99.90
12434;DHT22;6281;49.038;8.372;2024-02-26T07:07:37;8.40;99.90
12434;DHT22;6281;49.038;8.372;2024-02-26T07:10:05;8.40;99.90
12434;DHT22;6281;49.038;8.372;2024-02-26T07:12:32;8.50;99.90
12434;DHT22;6281;49.038;8.372;2024-02-26T07:15:01;8.50;99.90
12434;DHT22;6281;49.038;8.372;2024-02-26T07:17:28;8.50;99.90
12434;DHT22;6281;49.038;8.372;2024-02-26T07:19:55;8.40;99.90
12434;DHT22;6281;49.038;8.372;2024-02-26T07:22:22;8.40;99.90
12434;DHT22;6281;49.038;8.372;2024-02-26T07:24:49;8.50;99.90
12434;DHT22;6281;49.038;8.372;2024-02-26T07:27:17;8.40;99.90
12434;DHT22;6281;49.038;8.372;2024-02-26T07:29:44;8.40;99.90
12434;DHT22;6281;49.038;8.372;2024-02-26T07:32:13;8.40;99.90
12434;DHT22;6281;49.038;8.372;2024-02-26T07:34:41;8.50;99.90
12434;DHT22;6281;49.038;8.372;2024-02-26T07:37:10;8.50;99.90
12434;DHT22;6281;49.038;8.372;2024-02-26T07:39:36;8.50;99.90
12434;DHT22;6281;49.038;8.372;2024-02-26T07:42:04;8.50;99.90
12434;DHT22;6281;49.038;8.372;2024-02-26T07:44:31;8.50;99.90
12434;DHT22;6281;49.038;8.372;2024-02-26T07:46:58;8.50;99.90
12434;DHT22;6281;49.038;8.372;2024-02-26T07:49:27;8.50;99.90
12434;DHT22;6281;49.038;8.372;2024-02-26T07:51:53;8.50;99.90
12434;DHT22;6281;49.038;8.372;2024-02-26T07:54:23;8.60;99.90
12434;DHT22;6281;49.038;8.372;2024-02-26T07:56:50;8.70;99.90
12434;DHT22;6281;49.038;8.372;2024-02-26T07:59:17;8.60;99.90
12434;DHT22;6281;49.038;8.372;2024-02-26T08:01:44;8.70;99.90
12434;DHT22;6281;49.038;8.372;2024-02-26T08:04:11;8.70;99.90
12434;DHT22;6281;49.038;8.372;2024-02-26T08:06:39;8.60;99.90
12434;DHT22;6281;49.038;8.372;2024-02-26T08:09:06;8.50;99.90
12434;DHT22;6281;49.038;8.372;2024-02-26T08:11:33;8.60;99.90
12434;DHT22;6281;49.038;8.372;2024-02-26T08:14:00;8.80;99.90
12434;DHT22;6281;49.038;8.372;2024-02-26T08:16:27;8.70;99.90
12434;DHT22;6281;49.038;8.372;2024-02-26T08:18:55;8.60;99.90
12434;DHT22;6281;49.038;8.372;2024-02-26T08:21:22;8.70;99.90
12434;DHT22;6281;49.038;8.372;2024-02-26T08:23:50;8.80;99.90
12434;DHT22;6281;49.038;8.372;2024-02-26T08:26:17;8.90;99.90
12434;DHT22;6281;49.038;8.372;2024-02-26T08:28:46;8.90;99.90
12434;DHT22;6281;49.038;8.372;2024-02-26T08:31:13;9.00;99.90
12434;DHT22;6281;49.038;8.372;2024-02-26T08:33:40;9.00;99.90
12434;DHT22;6281;49.038;8.372;2024-02-26T08:36:07;9.10;99.90
12434;DHT22;6281;49.038;8.372;2024-02-26T08:38:34;9.30;99.90
12434;DHT22;6281;49.038;8.372;2024-02-26T08:41:03;9.20;99.90
12434;DHT22;6281;49.038;8.372;2024-02-26T08:43:31;9.40;99.90
12434;DHT22;6281;49.038;8.372;2024-02-26T08:45:57;9.40;99.90
12434;DHT22;6281;49.038;8.372;2024-02-26T08:48:24;9.40;99.90
12434;DHT22;6281;49.038;8.372;2024-02-26T08:50:51;9.40;99.90
12434;DHT22;6281;49.038;8.372;2024-02-26T08:53:18;9.30;99.90
12434;DHT22;6281;49.038;8.372;2024-02-26T08:55:46;9.40;99.90
12434;DHT22;6281;49.038;8.372;2024-02-26T08:58:14;9.40;99.90
12434;DHT22;6281;49.038;8.372;2024-02-26T09:00:41;9.50;99.90
12434;DHT22;6281;49.038;8.372;2024-02-26T09:03:08;9.50;99.90
12434;DHT22;6281;49.038;8.372;2024-02-26T09:05:35;9.60;99.90
12434;DHT22;6281;49.038;8.372;2024-02-26T09:08:01;9.80;99.90
12434;DHT22;6281;49.038;8.372;2024-02-26T09:10:29;9.80;99.90
12434;DHT22;6281;49.038;8.372;2024-02-26T09:12:55;9.90;99.90
12434;DHT22;6281;49.038;8.372;2024-02-26T09:15:24;9.90;99.90
12434;DHT22;6281;49.038;8.372;2024-02-26T09:17:50;10.10;99.90
12434;DHT22;6281;49.038;8.372;2024-02-26T09:20:17;10.20;99.90
12434;DHT22;6281;49.038;8.372;2024-02-26T09:22:45;10.20;99.90
12434;DHT22;6281;49.038;8.372;2024-02-26T09:25:12;10.30;99.90
12434;DHT22;6281;49.038;8.372;2024-02-26T09:27:41;10.20;99.90
12434;DHT22;6281;49.038;8.372;2024-02-26T09:30:08;10.30;99.90
12434;DHT22;6281;49.038;8.372;2024-02-26T09:32:36;10.20;99.90
12434;DHT22;6281;49.038;8.372;2024-02-26T09:35:04;10.10;99.90
12434;DHT22;6281;49.038;8.372;2024-02-26T09:37:31;10.20;99.90
12434;DHT22;6281;49.038;8.372;2024-02-26T09:39:58;10.20;99.90
12434;DHT22;6281;49.038;8.372;2024-02-26T09:42:26;10.30;99.90
12434;DHT22;6281;49.038;8.372;2024-02-26T09:44:54;10.40;99.90
12434;DHT22;6281;49.038;8.372;2024-02-26T09:47:23;10.30;99.90
12434;DHT22;6281;49.038;8.372;2024-02-26T09:49:52;10.40;99.90
12434;DHT22;6281;49.038;8.372;2024-02-26T09:52:19;10.50;99.90
12434;DHT22;6281;49.038;8.372;2024-02-26T09:54:47;10.60;99.90
12434;DHT22;6281;49.038;8.372;2024-02-26T09:57:15;10.70;99.90
12434;DHT22;6281;49.038;8.372;2024-02-26T09:59:43;10.70;99.90
12434;DHT22;6281;49.038;8.372;2024-02-26T10:02:13;11.10;99.90
12434;DHT22;6281;49.038;8.372;2024-02-26T10:04:41;11.10;99.90
12434;DHT22;6281;49.038;8.372;2024-02-26T10:07:21;11.00;99.90
12434;DHT22;6281;49.038;8.372;2024-02-26T10:10:07;11.10;99.90
12434;DHT22;6281;49.038;8.372;2024-02-26T10:12:40;11.20;99.90
12434;DHT22;6281;49.038;8.372;2024-02-26T10:15:30;11.20;99.90
12434;DHT22;6281;49.038;8.372;2024-02-26T10:18:00;11.20;99.90
12434;DHT22;6281;49.038;8.372;2024-02-26T10:20:41;11.10;99.90
12434;DHT22;6281;49.038;8.372;2024-02-26T10:23:21;11.10;99.90
12434;DHT22;6281;49.038;8.372;2024-02-26T10:26:19;11.20;99.90
12434;DHT22;6281;49.038;8.372;2024-02-26T10:28:50;11.30;99.90
12434;DHT22;6281;49.038;8.372;2024-02-26T10:31:50;11.40;99.90
12434;DHT22;6281;49.038;8.372;2024-02-26T10:34:31;11.30;99.90
12434;DHT22;6281;49.038;8.372;2024-02-26T10:37:20;11.30;99.90
12434;DHT22;6281;49.038;8.372;2024-02-26T10:42:09;11.30;99.90
12434;DHT22;6281;49.038;8.372;2024-02-26T10:43:29;11.40;99.90
12434;DHT22;6281;49.038;8.372;2024-02-26T10:49:44;11.70;99.90
12434;DHT22;6281;49.038;8.372;2024-02-26T10:54:49;11.70;99.90
12434;DHT22;6281;49.038;8.372;2024-02-26T10:59:07;11.60;99.90
12434;DHT22;6281;49.038;8.372;2024-02-26T11:01:36;11.70;99.90
12434;DHT22;6281;49.038;8.372;2024-02-26T11:04:05;11.90;99.90
12434;DHT22;6281;49.038;8.372;2024-02-26T11:06:38;12.20;99.90
12434;DHT22;6281;49.038;8.372;2024-02-26T11:09:12;13.70;99.90
12434;DHT22;6281;49.038;8.372;2024-02-26T11:12:01;14.60;99.90
12434;DHT22;6281;49.038;8.372;2024-02-26T11:14:39;14.30;99.90
12434;DHT22;6281;49.038;8.372;2024-02-26T11:17:07;15.60;99.90
12434;DHT22;6281;49.038;8.372;2024-02-26T11:19:36;15.70;99.90
12434;DHT22;6281;49.038;8.372;2024-02-26T11:22:03;15.80;99.90
12434;DHT22;6281;49.038;8.372;2024-02-26T11:24:33;16.80;99.90
12434;DHT22;6281;49.038;8.372;2024-02-26T11:27:03;18.10;99.90
12434;DHT22;6281;49.038;8.372;2024-02-26T11:29:35;18.70;99.90
12434;DHT22;6281;49.038;8.372;2024-02-26T11:32:07;18.20;99.90
12434;DHT22;6281;49.038;8.372;2024-02-26T11:34:34;18.90;99.90
12434;DHT22;6281;49.038;8.372;2024-02-26T11:37:09;18.10;99.90
12434;DHT22;6281;49.038;8.372;2024-02-26T11:39:37;17.00;99.90
12434;DHT22;6281;49.038;8.372;2024-02-26T11:42:09;16.50;99.90
12434;DHT22;6281;49.038;8.372;2024-02-26T11:44:36;15.80;99.90
12434;DHT22;6281;49.038;8.372;2024-02-26T11:47:10;15.40;99.90
12434;DHT22;6281;49.038;8.372;2024-02-26T11:49:37;16.60;99.90
12434;DHT22;6281;49.038;8.372;2024-02-26T11:52:06;17.00;99.90
12434;DHT22;6281;49.038;8.372;2024-02-26T11:54:48;18.10;99.90
12434;DHT22;6281;49.038;8.372;2024-02-26T11:57:27;20.10;97.70
12434;DHT22;6281;49.038;8.372;2024-02-26T11:59:54;19.90;93.90
12434;DHT22;6281;49.038;8.372;2024-02-26T12:02:40;20.00;58.40
12434;DHT22;6281;49.038;8.372;2024-02-26T12:05:10;20.10;72.50
12434;DHT22;6281;49.038;8.372;2024-02-26T12:07:40;20.70;98.60
12434;DHT22;6281;49.038;8.372;2024-02-26T12:10:23;19.80;52.30
12434;DHT22;6281;49.038;8.372;2024-02-26T12:13:05;21.10;65.80
12434;DHT22;6281;49.038;8.372;2024-02-26T12:15:33;20.00;53.80
12434;DHT22;6281;49.038;8.372;2024-02-26T12:18:02;18.70;83.30
12434;DHT22;6281;49.038;8.372;2024-02-26T12:20:29;18.40;99.90
12434;DHT22;6281;49.038;8.372;2024-02-26T12:22:58;17.60;99.90
12434;DHT22;6281;49.038;8.372;2024-02-26T12:25:26;17.50;99.90
12434;DHT22;6281;49.038;8.372;2024-02-26T12:27:54;17.40;99.90
12434;DHT22;6281;49.038;8.372;2024-02-26T12:30:26;17.90;99.90
12434;DHT22;6281;49.038;8.372;2024-02-26T12:32:56;17.80;99.90
12434;DHT22;6281;49.038;8.372;2024-02-26T12:35:26;17.20;99.90
12434;DHT22;6281;49.038;8.372;2024-02-26T12:37:54;17.40;99.90
12434;DHT22;6281;49.038;8.372;2024-02-26T12:40:22;17.90;99.70
12434;DHT22;6281;49.038;8.372;2024-02-26T12:42:49;17.80;99.90
12434;DHT22;6281;49.038;8.372;2024-02-26T12:45:16;17.90;99.90
12434;DHT22;6281;49.038;8.372;2024-02-26T12:47:48;17.30;99.90
12434;DHT22;6281;49.038;8.372;2024-02-26T12:50:16;16.90;99.90
12434;DHT22;6281;49.038;8.372;2024-02-26T12:52:44;16.90;99.90
12434;DHT22;6281;49.038;8.372;2024-02-26T12:55:14;17.10;99.90
12434;DHT22;6281;49.038;8.372;2024-02-26T12:57:43;18.00;99.90
12434;DHT22;6281;49.038;8.372;2024-02-26T13:00:12;17.50;99.90
12434;DHT22;6281;49.038;8.372;2024-02-26T13:02:41;17.10;99.90
12434;DHT22;6281;49.038;8.372;2024-02-26T13:05:13;16.90;99.90
12434;DHT22;6281;49.038;8.372;2024-02-26T13:07:45;15.90;99.90
12434;DHT22;6281;49.038;8.372;2024-02-26T13:10:13;15.90;99.90
12434;DHT22;6281;49.038;8.372;2024-02-26T13:12:43;16.00;99.90
12434;DHT22;6281;49.038;8.372;2024-02-26T13:15:15;16.20;99.90
12434;DHT22;6281;49.038;8.372;2024-02-26T13:17:42;15.90;99.90
12434;DHT22;6281;49.038;8.372;2024-02-26T13:20:11;15.90;99.90
12434;DHT22;6281;49.038;8.372;2024-02-26T13:22:39;16.30;99.90
12434;DHT22;6281;49.038;8.372;2024-02-26T13:25:06;16.60;99.90
12434;DHT22;6281;49.038;8.372;2024-02-26T13:27:34;16.40;99.90
12434;DHT22;6281;49.038;8.372;2024-02-26T13:30:05;16.50;99.90
12434;DHT22;6281;49.038;8.372;2024-02-26T13:32:37;16.30;99.90
12434;DHT22;6281;49.038;8.372;2024-02-26T13:35:08;16.60;99.90
12434;DHT22;6281;49.038;8.372;2024-02-26T13:37:37;16.90;99.90
12434;DHT22;6281;49.038;8.372;2024-02-26T13:40:05;16.60;99.90
12434;DHT22;6281;49.038;8.372;2024-02-26T13:42:34;15.90;99.90
12434;DHT22;6281;49.038;8.372;2024-02-26T13:45:01;15.70;99.90
12434;DHT22;6281;49.038;8.372;2024-02-26T13:47:28;15.60;99.90
12434;DHT22;6281;49.038;8.372;2024-02-26T13:49:55;15.50;99.90
12434;DHT22;6281;49.038;8.372;2024-02-26T13:52:22;15.40;99.90
12434;DHT22;6281;49.038;8.372;2024-02-26T13:54:51;15.50;99.90
12434;DHT22;6281;49.038;8.372;2024-02-26T13:57:18;15.40;99.90
12434;DHT22;6281;49.038;8.372;2024-02-26T13:59:45;15.40;99.90
12434;DHT22;6281;49.038;8.372;2024-02-26T14:02:13;15.60;99.90
12434;DHT22;6281;49.038;8.372;2024-02-26T14:04:40;16.00;99.90
12434;DHT22;6281;49.038;8.372;2024-02-26T14:07:07;16.10;99.90
12434;DHT22;6281;49.038;8.372;2024-02-26T14:09:35;16.70;99.90
12434;DHT22;6281;49.038;8.372;2024-02-26T14:12:04;17.10;99.90
12434;DHT22;6281;49.038;8.372;2024-02-26T14:14:31;17.10;99.90
12434;DHT22;6281;49.038;8.372;2024-02-26T14:17:01;16.80;99.90
12434;DHT22;6281;49.038;8.372;2024-02-26T14:19:29;16.50;99.90
12434;DHT22;6281;49.038;8.372;2024-02-26T14:21:56;15.80;99.90
12434;DHT22;6281;49.038;8.372;2024-02-26T14:24:23;15.50;99.90
12434;DHT22;6281;49.038;8.372;2024-02-26T14:26:50;15.70;99.90
12434;DHT22;6281;49.038;8.372;2024-02-26T14:29:18;16.00;99.90
12434;DHT22;6281;49.038;8.372;2024-02-26T14:31:45;16.70;99.90
12434;DHT22;6281;49.038;8.372;2024-02-26T14:34:12;17.30;99.90
12434;DHT22;6281;49.038;8.372;2024-02-26T14:36:39;17.50;99.90
12434;DHT22;6281;49.038;8.372;2024-02-26T14:39:06;17.30;99.90
12434;DHT22;6281;49.038;8.372;2024-02-26T14:41:36;17.10;99.90
12434;DHT22;6281;49.038;8.372;2024-02-26T14:44:03;17.40;99.90
12434;DHT22;6281;49.038;8.372;2024-02-26T14:46:32;17.20;99.90
12434;DHT22;6281;49.038;8.372;2024-02-26T14:48:59;17.50;99.90
12434;DHT22;6281;49.038;8.372;2024-02-26T14:51:26;17.10;99.90
12434;DHT22;6281;49.038;8.372;2024-02-26T14:53:53;17.10;99.90
12434;DHT22;6281;49.038;8.372;2024-02-26T14:56:20;17.40;99.90
12434;DHT22;6281;49.038;8.372;2024-02-26T14:58:46;17.30;99.90
12434;DHT22;6281;49.038;8.372;2024-02-26T15:01:13;17.20;99.90
12434;DHT22;6281;49.038;8.372;2024-02-26T15:03:42;17.80;99.90
12434;DHT22;6281;49.038;8.372;2024-02-26T15:06:09;17.50;99.90
12434;DHT22;6281;49.038;8.372;2024-02-26T15:08:36;17.30;99.90
12434;DHT22;6281;49.038;8.372;2024-02-26T15:11:03;17.60;99.90
12434;DHT22;6281;49.038;8.372;2024-02-26T15:13:31;17.70;99.90
12434;DHT22;6281;49.038;8.372;2024-02-26T15:15:57;17.50;99.90
12434;DHT22;6281;49.038;8.372;2024-02-26T15:18:24;17.30;99.90
12434;DHT22;6281;49.038;8.372;2024-02-26T15:20:53;16.50;99.90
12434;DHT22;6281;49.038;8.372;2024-02-26T15:23:20;16.20;99.90
12434;DHT22;6281;49.038;8.372;2024-02-26T15:25:47;16.60;99.90
12434;DHT22;6281;49.038;8.372;2024-02-26T15:28:14;16.30;99.90
12434;DHT22;6281;49.038;8.372;2024-02-26T15:30:41;17.20;99.90
12434;DHT22;6281;49.038;8.372;2024-02-26T15:33:08;17.10;99.90
12434;DHT22;6281;49.038;8.372;2024-02-26T15:35:35;17.20;99.90
12434;DHT22;6281;49.038;8.372;2024-02-26T15:38:04;16.60;99.90
12434;DHT22;6281;49.038;8.372;2024-02-26T15:40:31;16.60;99.90
12434;DHT22;6281;49.038;8.372;2024-02-26T15:42:58;16.70;99.90
12434;DHT22;6281;49.038;8.372;2024-02-26T15:45:25;16.20;99.90
12434;DHT22;6281;49.038;8.372;2024-02-26T15:47:57;15.70;99.90
12434;DHT22;6281;49.038;8.372;2024-02-26T15:50:24;15.60;99.90
12434;DHT22;6281;49.038;8.372;2024-02-26T15:52:51;15.90;99.90
12434;DHT22;6281;49.038;8.372;2024-02-26T15:55:21;16.10;99.90
12434;DHT22;6281;49.038;8.372;2024-02-26T15:57:48;15.50;99.90
12434;DHT22;6281;49.038;8.372;2024-02-26T16:00:15;15.60;99.90
12434;DHT22;6281;49.038;8.372;2024-02-26T16:02:42;15.70;99.90
12434;DHT22;6281;49.038;8.372;2024-02-26T16:05:12;15.50;99.90
12434;DHT22;6281;49.038;8.372;2024-02-26T16:07:43;14.60;99.90
12434;DHT22;6281;49.038;8.372;2024-02-26T16:10:17;15.00;99.90
12434;DHT22;6281;49.038;8.372;2024-02-26T16:12:53;15.20;99.90
12434;DHT22;6281;49.038;8.372;2024-02-26T16:15:25;15.00;99.90
12434;DHT22;6281;49.038;8.372;2024-02-26T16:17:53;15.00;99.90